createdAt,value
2022-10-08T00:01:00.063Z,7.33
2022-10-08T00:04:01.762Z,7.60
2022-10-08T00:07:03.423Z,7.23
2022-10-08T00:10:06.406Z,7.77
2022-10-08T00:13:07.979Z,7.33
2022-10-08T00:16:21.732Z,7.87
2022-10-08T00:19:23.359Z,8.03
2022-10-08T00:22:25.236Z,8.07
2022-10-08T00:25:26.807Z,7.80
2022-10-08T00:28:28.570Z,7.90
2022-10-08T00:31:34.539Z,7.50
2022-10-08T00:34:36.290Z,7.73
2022-10-08T00:37:37.865Z,7.60
2022-10-08T00:40:43.315Z,7.33
2022-10-08T00:43:46.809Z,7.73
2022-10-08T00:46:49.577Z,8.13
2022-10-08T00:49:53.526Z,7.27
2022-10-08T00:53:07.761Z,7.70
2022-10-08T00:56:09.443Z,7.67
2022-10-08T00:59:11.831Z,7.77
2022-10-08T01:02:13.805Z,7.70
2022-10-08T01:05:19.650Z,7.90
2022-10-08T01:08:33.463Z,7.63
2022-10-08T01:11:47.667Z,6.97
2022-10-08T01:14:52.076Z,6.93
2022-10-08T01:18:05.961Z,7.13
2022-10-08T01:21:27.826Z,7.90
2022-10-08T01:25:00.807Z,7.03
2022-10-08T01:28:10.870Z,6.90
2022-10-08T01:31:27.080Z,6.73
2022-10-08T01:34:32.592Z,7.13
2022-10-08T01:37:36.547Z,6.87
2022-10-08T01:40:40.347Z,6.90
2022-10-08T01:43:44.154Z,7.03
2022-10-08T01:46:47.669Z,6.60
2022-10-08T01:49:51.568Z,6.87
2022-10-08T01:52:54.813Z,7.03
2022-10-08T01:55:57.163Z,6.63
2022-10-08T01:59:08.268Z,6.77
2022-10-08T02:02:13.849Z,6.93
2022-10-08T02:05:15.538Z,7.17
2022-10-08T02:08:17.134Z,7.43
2022-10-08T02:11:19.336Z,6.80
2022-10-08T02:14:24.503Z,7.57
2022-10-08T02:17:26.389Z,7.10
2022-10-08T02:20:33.371Z,7.10
2022-10-08T02:23:38.103Z,7.20
2022-10-08T02:26:49.845Z,7.20
2022-10-08T02:29:58.282Z,7.37
2022-10-08T02:33:02.946Z,8.27
2022-10-08T02:36:06.363Z,8.20
2022-10-08T02:39:09.544Z,8.17
2022-10-08T02:42:12.885Z,8.57
2022-10-08T02:45:18.059Z,7.90
2022-10-08T02:48:23.821Z,8.00
2022-10-08T02:51:27.788Z,8.70
2022-10-08T02:54:32.068Z,8.20
2022-10-08T02:57:38.258Z,8.73
2022-10-08T03:00:44.111Z,7.83
2022-10-08T03:03:52.096Z,8.93
2022-10-08T03:06:54.190Z,8.30
2022-10-08T03:09:56.219Z,8.43
2022-10-08T03:13:01.783Z,8.70
2022-10-08T03:16:05.837Z,8.30
2022-10-08T03:19:08.825Z,8.90
2022-10-08T03:22:10.788Z,8.30
2022-10-08T03:25:12.373Z,8.53
2022-10-08T03:28:14.061Z,8.50
2022-10-08T03:31:15.753Z,8.40
2022-10-08T03:34:17.372Z,8.83
2022-10-08T03:37:19.317Z,8.33
2022-10-08T03:40:21.288Z,8.67
2022-10-08T03:43:23.325Z,8.23
2022-10-08T03:46:25.282Z,8.47
2022-10-08T03:49:26.955Z,8.27
2022-10-08T03:52:29.920Z,9.10
2022-10-08T03:55:31.521Z,8.30
2022-10-08T03:58:33.199Z,8.60
2022-10-08T04:01:34.996Z,8.20
2022-10-08T04:04:36.648Z,7.90
2022-10-08T04:07:38.217Z,8.20
2022-10-08T04:10:39.820Z,8.33
2022-10-08T04:13:41.658Z,8.00
2022-10-08T04:16:43.260Z,9.23
2022-10-08T04:19:44.858Z,8.67
2022-10-08T04:22:46.846Z,9.10
2022-10-08T04:25:49.826Z,8.53
2022-10-08T04:28:51.511Z,8.77
2022-10-08T04:31:53.185Z,8.97
2022-10-08T04:34:54.769Z,9.00
2022-10-08T04:37:56.364Z,8.47
2022-10-08T04:41:04.089Z,8.60
2022-10-08T04:44:05.702Z,8.77
2022-10-08T04:47:07.361Z,9.93
2022-10-08T04:50:09.081Z,10.27
2022-10-08T04:53:10.845Z,9.63
2022-10-08T04:56:14.012Z,9.00
2022-10-08T04:59:15.652Z,9.70
2022-10-08T05:02:17.355Z,9.50
2022-10-08T05:05:19.114Z,9.40
2022-10-08T05:08:20.696Z,10.73
2022-10-08T05:11:26.125Z,9.60
2022-10-08T05:14:27.705Z,11.10
2022-10-08T05:17:29.353Z,9.93
2022-10-08T05:20:30.915Z,10.87
2022-10-08T05:23:33.081Z,12.63
2022-10-08T05:26:56.772Z,11.47
2022-10-08T05:29:57.553Z,10.60
2022-10-08T05:32:59.159Z,9.93
2022-10-08T05:36:02.633Z,9.90
2022-10-08T05:39:04.862Z,9.40
2022-10-08T05:42:06.410Z,10.33
2022-10-08T05:45:08.168Z,9.47
2022-10-08T05:48:09.715Z,9.27
2022-10-08T05:51:12.508Z,9.63
2022-10-08T05:54:14.156Z,10.43
2022-10-08T05:57:15.723Z,9.63
2022-10-08T06:00:17.363Z,9.27
2022-10-08T06:03:18.936Z,9.37
2022-10-08T06:06:20.866Z,8.90
2022-10-08T06:09:22.569Z,8.00
2022-10-08T06:12:24.209Z,7.87
2022-10-08T06:15:25.832Z,8.50
2022-10-08T06:18:28.182Z,8.53
2022-10-08T06:21:30.126Z,8.13
2022-10-08T06:24:31.798Z,8.87
2022-10-08T06:27:33.335Z,8.27
2022-10-08T06:30:41.869Z,9.40
2022-10-08T06:33:46.668Z,9.37
2022-10-08T06:36:48.290Z,8.60
2022-10-08T06:39:49.884Z,10.43
2022-10-08T06:42:51.775Z,10.20
2022-10-08T06:45:53.474Z,9.90
2022-10-08T06:48:55.041Z,10.63
2022-10-08T06:51:58.211Z,9.07
2022-10-08T06:54:59.854Z,9.00
2022-10-08T06:58:01.710Z,9.50
2022-10-08T07:01:13.607Z,8.27
2022-10-08T07:04:15.278Z,7.17
2022-10-08T07:07:16.894Z,6.83
2022-10-08T07:10:18.780Z,6.03
2022-10-08T07:13:20.457Z,8.87
2022-10-08T07:16:23.562Z,6.03
2022-10-08T07:19:33.306Z,4.95
2022-10-08T07:22:35.129Z,4.78
2022-10-08T07:25:36.981Z,4.97
2022-10-08T07:28:39.624Z,5.03
2022-10-08T07:31:41.333Z,6.22
2022-10-08T07:34:43.003Z,6.25
2022-10-08T07:37:44.564Z,7.55
2022-10-08T07:40:48.535Z,5.60
2022-10-08T07:43:52.218Z,12.20
2022-10-08T07:46:54.120Z,23.35
2022-10-08T07:49:55.779Z,23.92
2022-10-08T07:52:57.338Z,7.07
2022-10-08T07:55:58.900Z,7.18
2022-10-08T07:59:01.339Z,7.15
2022-10-08T08:02:03.183Z,6.10
2022-10-08T08:05:04.960Z,5.30
2022-10-08T08:08:06.570Z,5.43
2022-10-08T08:11:09.251Z,5.28
2022-10-08T08:14:10.867Z,5.07
2022-10-08T08:17:12.461Z,4.60
2022-10-08T08:20:14.080Z,5.38
2022-10-08T08:23:15.681Z,4.63
2022-10-08T08:26:21.810Z,4.40
2022-10-08T08:29:23.421Z,7.85
2022-10-08T08:32:28.350Z,5.07
2022-10-08T08:35:30.277Z,5.30
2022-10-08T08:38:34.325Z,5.60
2022-10-08T08:41:42.167Z,4.17
2022-10-08T08:44:48.320Z,4.32
2022-10-08T08:47:55.102Z,4.43
2022-10-08T08:50:59.518Z,4.00
2022-10-08T08:54:01.449Z,5.15
2022-10-08T08:57:17.076Z,3.55
2022-10-08T09:00:20.974Z,3.45
2022-10-08T09:03:25.131Z,3.70
2022-10-08T09:06:29.043Z,3.55
2022-10-08T09:09:36.526Z,3.40
2022-10-08T09:12:39.348Z,3.17
2022-10-08T09:15:41.819Z,3.30
2022-10-08T09:18:45.571Z,3.33
2022-10-08T09:21:47.146Z,3.42
2022-10-08T09:24:51.231Z,3.33
2022-10-08T09:27:52.789Z,3.05
2022-10-08T09:30:58.771Z,3.35
2022-10-08T09:34:01.960Z,3.60
2022-10-08T09:37:05.070Z,3.60
2022-10-08T09:40:12.402Z,3.30
2022-10-08T09:43:16.933Z,3.50
2022-10-08T09:46:29.008Z,3.93
2022-10-08T09:49:34.899Z,4.13
2022-10-08T09:52:37.049Z,3.70
2022-10-08T09:55:38.686Z,3.60
2022-10-08T09:58:49.158Z,3.77
2022-10-08T10:01:51.017Z,4.43
2022-10-08T10:04:54.064Z,5.37
2022-10-08T10:07:55.802Z,5.30
2022-10-08T10:10:57.482Z,3.73
2022-10-08T10:14:02.930Z,3.80
2022-10-08T10:17:08.417Z,3.60
2022-10-08T10:20:19.278Z,4.10
2022-10-08T10:23:31.936Z,3.70
2022-10-08T10:26:35.095Z,4.87
2022-10-08T10:29:44.568Z,6.03
2022-10-08T10:33:02.763Z,4.00
2022-10-08T10:36:07.387Z,3.37
2022-10-08T10:39:27.893Z,3.10
2022-10-08T10:42:33.347Z,2.97
2022-10-08T10:45:35.212Z,4.13
2022-10-08T10:48:36.827Z,3.80
2022-10-08T10:51:49.085Z,3.50
2022-10-08T10:54:53.675Z,3.40
2022-10-08T10:58:12.648Z,2.67
2022-10-08T11:01:23.267Z,5.33
2022-10-08T11:04:31.062Z,3.03
2022-10-08T11:07:48.229Z,3.90
2022-10-08T11:10:59.766Z,4.07
2022-10-08T11:14:44.824Z,3.60
2022-10-08T11:17:56.765Z,3.77
2022-10-08T11:21:04.383Z,4.20
2022-10-08T11:24:23.477Z,4.13
2022-10-08T11:27:43.744Z,3.17
2022-10-08T11:30:59.827Z,3.70
2022-10-08T11:34:01.793Z,3.30
2022-10-08T11:37:12.613Z,3.20
2022-10-08T11:40:27.064Z,3.37
2022-10-08T11:43:49.175Z,3.27
2022-10-08T11:46:50.889Z,3.23
2022-10-08T11:49:55.804Z,3.53
2022-10-08T11:53:09.810Z,3.47
2022-10-08T11:56:18.997Z,3.50
2022-10-08T11:59:32.940Z,29.03
2022-10-08T12:02:41.798Z,4.50
2022-10-08T12:05:50.367Z,4.00
2022-10-08T12:08:54.390Z,4.20
2022-10-08T12:11:56.242Z,4.17
2022-10-08T12:14:57.872Z,4.30
2022-10-08T12:18:00.408Z,4.60
2022-10-08T12:21:17.468Z,5.00
2022-10-08T12:24:37.445Z,4.87
2022-10-08T12:27:40.099Z,3.87
2022-10-08T12:30:46.673Z,4.00
2022-10-08T12:33:55.178Z,4.27
2022-10-08T12:37:07.148Z,4.23
2022-10-08T12:40:31.986Z,5.03
2022-10-08T12:43:41.413Z,4.80
2022-10-08T12:47:01.612Z,4.80
2022-10-08T12:50:18.873Z,4.90
2022-10-08T12:53:20.645Z,4.10
2022-10-08T12:56:28.067Z,4.60
2022-10-08T12:59:33.353Z,4.50
2022-10-08T13:02:37.045Z,7.00
2022-10-08T13:05:39.937Z,3.83
2022-10-08T13:08:42.718Z,4.13
2022-10-08T13:11:44.324Z,3.93
2022-10-08T13:14:45.898Z,4.10
2022-10-08T13:17:47.691Z,3.13
2022-10-08T13:20:59.851Z,4.90
2022-10-08T13:24:03.362Z,4.40
2022-10-08T13:27:06.703Z,5.00
2022-10-08T13:30:27.529Z,4.60
2022-10-08T13:33:32.538Z,4.27
2022-10-08T13:36:37.864Z,4.00
2022-10-08T13:39:59.675Z,3.67
2022-10-08T13:43:01.704Z,4.27
2022-10-08T13:46:03.414Z,3.70
2022-10-08T13:49:16.806Z,3.67
2022-10-08T13:52:19.692Z,3.87
2022-10-08T13:55:21.209Z,3.57
2022-10-08T13:58:22.780Z,3.90
2022-10-08T14:01:24.440Z,3.60
2022-10-08T14:04:26.073Z,4.30
2022-10-08T14:07:29.278Z,3.57
2022-10-08T14:10:31.218Z,3.70
2022-10-08T14:13:32.795Z,3.67
2022-10-08T14:16:34.669Z,3.53
2022-10-08T14:19:36.471Z,3.80
2022-10-08T14:22:41.228Z,3.30
2022-10-08T14:25:42.870Z,3.40
2022-10-08T14:28:44.723Z,3.50
2022-10-08T14:31:46.617Z,4.13
2022-10-08T14:34:48.270Z,3.73
2022-10-08T14:37:50.483Z,4.20
2022-10-08T14:40:52.281Z,3.53
2022-10-08T14:43:53.970Z,3.73
2022-10-08T14:46:55.595Z,3.93
2022-10-08T14:49:57.209Z,3.70
2022-10-08T14:52:58.761Z,4.47
2022-10-08T14:56:12.093Z,4.20
2022-10-08T14:59:14.302Z,4.30
2022-10-08T15:02:16.296Z,3.90
2022-10-08T15:05:18.099Z,3.80
2022-10-08T15:08:20.483Z,3.53
2022-10-08T15:11:22.112Z,4.60
2022-10-08T15:14:24.085Z,3.90
2022-10-08T15:17:25.733Z,4.10
2022-10-08T15:20:27.299Z,4.70
2022-10-08T15:23:29.025Z,4.47
2022-10-08T15:26:30.567Z,5.97
2022-10-08T15:29:33.432Z,5.70
2022-10-08T15:32:37.209Z,5.57
2022-10-08T15:35:38.883Z,5.33
2022-10-08T15:38:40.608Z,4.80
2022-10-08T15:41:46.441Z,4.60
2022-10-08T15:44:48.102Z,4.77
2022-10-08T15:47:49.744Z,5.40
2022-10-08T15:50:57.852Z,6.27
2022-10-08T15:53:59.595Z,8.70
2022-10-08T15:57:01.174Z,12.47
2022-10-08T16:00:02.864Z,26.93
2022-10-08T16:03:13.445Z,13.43
2022-10-08T16:06:26.178Z,8.90
2022-10-08T16:09:28.653Z,7.23
2022-10-08T16:12:30.356Z,7.40
2022-10-08T16:15:36.245Z,8.43
2022-10-08T16:18:38.225Z,9.03
2022-10-08T16:21:39.981Z,8.37
2022-10-08T16:24:41.582Z,9.47
2022-10-08T16:27:43.154Z,9.13
2022-10-08T16:30:44.741Z,9.17
2022-10-08T16:33:46.425Z,9.67
2022-10-08T16:36:48.541Z,11.17
2022-10-08T16:39:50.296Z,10.37
2022-10-08T16:42:53.203Z,10.70
2022-10-08T16:45:54.803Z,10.80
2022-10-08T16:48:58.035Z,12.70
2022-10-08T16:52:01.005Z,13.07
2022-10-08T16:55:03.177Z,14.27
2022-10-08T16:58:05.153Z,13.93
2022-10-08T17:01:07.343Z,13.30
2022-10-08T17:04:09.345Z,12.70
2022-10-08T17:07:10.941Z,12.47
2022-10-08T17:10:13.089Z,12.83
2022-10-08T17:13:14.647Z,12.10
2022-10-08T17:16:17.575Z,10.43
2022-10-08T17:19:19.340Z,8.00
2022-10-08T17:22:20.887Z,8.20
2022-10-08T17:25:22.483Z,7.37
2022-10-08T17:28:31.198Z,8.63
2022-10-08T17:31:33.184Z,8.60
2022-10-08T17:34:34.762Z,8.40
2022-10-08T17:37:36.827Z,8.37
2022-10-08T17:40:38.398Z,8.97
2022-10-08T17:43:40.063Z,10.70
2022-10-08T17:46:46.241Z,9.10
2022-10-08T17:49:47.959Z,9.90
2022-10-08T17:52:50.107Z,8.73
2022-10-08T17:55:59.172Z,8.70
2022-10-08T17:59:01.021Z,9.37
2022-10-08T18:02:02.887Z,8.53
2022-10-08T18:05:04.902Z,9.27
2022-10-08T18:08:06.444Z,8.13
2022-10-08T18:11:09.348Z,8.67
2022-10-08T18:14:11.199Z,8.20
2022-10-08T18:17:12.768Z,8.20
2022-10-08T18:20:14.385Z,8.50
2022-10-08T18:23:15.955Z,7.80
2022-10-08T18:26:20.396Z,8.20
2022-10-08T18:29:22.062Z,8.47
2022-10-08T18:32:23.697Z,8.47
2022-10-08T18:35:26.649Z,8.40
2022-10-08T18:38:28.203Z,7.30
2022-10-08T18:41:30.633Z,7.90
2022-10-08T18:44:32.219Z,7.60
2022-10-08T18:47:33.803Z,8.13
2022-10-08T18:50:35.521Z,8.13
2022-10-08T18:53:38.619Z,8.53
2022-10-08T18:56:41.216Z,8.30
2022-10-08T18:59:42.779Z,7.77
2022-10-08T19:02:44.421Z,8.53
2022-10-08T19:05:46.110Z,7.23
2022-10-08T19:08:47.712Z,7.83
2022-10-08T19:11:51.071Z,7.30
2022-10-08T19:14:52.735Z,7.57
2022-10-08T19:17:54.421Z,7.90
2022-10-08T19:20:56.030Z,8.10
2022-10-08T19:23:58.283Z,8.10
2022-10-08T19:27:00.032Z,7.37
2022-10-08T19:30:01.641Z,7.90
2022-10-08T19:33:03.292Z,7.70
2022-10-08T19:36:04.981Z,7.43
2022-10-08T19:39:07.947Z,7.80
2022-10-08T19:42:09.575Z,8.73
2022-10-08T19:45:12.526Z,8.47
2022-10-08T19:48:14.121Z,7.90
2022-10-08T19:51:16.059Z,8.70
2022-10-08T19:54:18.310Z,7.87
2022-10-08T19:57:20.090Z,7.53
2022-10-08T20:00:21.714Z,7.23
2022-10-08T20:03:23.369Z,10.90
2022-10-08T20:06:26.205Z,8.00
2022-10-08T20:09:27.993Z,7.80
2022-10-08T20:12:29.583Z,8.13
2022-10-08T20:15:31.330Z,8.03
2022-10-08T20:18:33.060Z,7.73
2022-10-08T20:21:35.927Z,7.70
2022-10-08T20:24:37.579Z,7.97
2022-10-08T20:27:39.162Z,8.33
2022-10-08T20:30:42.826Z,7.87
2022-10-08T20:33:45.388Z,11.50
2022-10-08T20:36:47.857Z,9.00
2022-10-08T20:39:49.550Z,10.70
2022-10-08T20:42:51.531Z,10.73
2022-10-08T20:45:53.216Z,9.57
2022-10-08T20:48:54.876Z,8.50
2022-10-08T20:51:57.482Z,8.63
2022-10-08T20:54:59.066Z,7.40
2022-10-08T20:58:00.632Z,8.70
2022-10-08T21:01:07.130Z,8.20
2022-10-08T21:04:08.889Z,8.50
2022-10-08T21:07:10.466Z,7.87
2022-10-08T21:10:12.172Z,7.90
2022-10-08T21:13:13.731Z,8.00
2022-10-08T21:16:17.020Z,7.73
2022-10-08T21:19:21.558Z,7.80
2022-10-08T21:22:23.193Z,8.40
2022-10-08T21:25:24.759Z,7.90
2022-10-08T21:28:26.387Z,7.97
2022-10-08T21:31:28.965Z,7.60
2022-10-08T21:34:30.547Z,7.83
2022-10-08T21:37:32.171Z,8.30
2022-10-08T21:40:33.782Z,7.30
2022-10-08T21:43:35.354Z,8.07
2022-10-08T21:46:38.473Z,8.20
2022-10-08T21:49:40.031Z,7.87
2022-10-08T21:52:41.678Z,8.10
2022-10-08T21:55:43.269Z,7.47
2022-10-08T21:58:45.882Z,7.87
2022-10-08T22:01:48.398Z,7.80
2022-10-08T22:04:50.031Z,7.90
2022-10-08T22:07:51.611Z,8.37
2022-10-08T22:10:53.657Z,8.23
2022-10-08T22:13:55.286Z,7.87
2022-10-08T22:16:56.901Z,7.93
2022-10-08T22:19:58.498Z,8.00
2022-10-08T22:23:00.161Z,7.93
2022-10-08T22:26:03.209Z,7.50
2022-10-08T22:29:05.656Z,7.70
2022-10-08T22:32:07.322Z,7.63
2022-10-08T22:35:09.169Z,7.97
2022-10-08T22:38:11.136Z,7.73
2022-10-08T22:41:18.053Z,8.70
2022-10-08T22:44:19.668Z,7.90
2022-10-08T22:47:21.205Z,7.77
2022-10-08T22:50:22.874Z,7.33
2022-10-08T22:53:24.747Z,7.30
2022-10-08T22:56:27.780Z,7.63
2022-10-08T22:59:30.471Z,8.00
2022-10-08T23:02:32.275Z,7.97
2022-10-08T23:05:33.913Z,7.90
2022-10-08T23:08:36.040Z,8.00
2022-10-08T23:11:37.784Z,7.67
2022-10-08T23:14:39.431Z,8.10
2022-10-08T23:17:41.019Z,8.40
2022-10-08T23:20:42.625Z,8.50
2022-10-08T23:23:45.125Z,8.60
2022-10-08T23:26:46.854Z,9.07
2022-10-08T23:29:48.871Z,9.07
2022-10-08T23:32:51.144Z,8.13
2022-10-08T23:35:54.126Z,8.37
2022-10-08T23:38:56.563Z,8.97
2022-10-08T23:41:58.227Z,7.53
2022-10-08T23:44:59.869Z,8.00
2022-10-08T23:48:01.498Z,7.80
2022-10-08T23:51:04.024Z,8.20
2022-10-08T23:54:05.735Z,7.80
2022-10-08T23:57:07.406Z,8.20
